createdAt,value
2018-01-26T00:00:05.321Z,1012.26
2018-01-26T00:05:03.548Z,1012.37
2018-01-26T00:10:03.137Z,1012.22
2018-01-26T00:15:02.741Z,1012.12
2018-01-26T00:20:03.351Z,1012.22
2018-01-26T00:25:02.931Z,1012.27
2018-01-26T00:30:03.443Z,1012.2
2018-01-26T00:35:03.028Z,1012.23
2018-01-26T00:40:02.721Z,1012.15
2018-01-26T00:45:03.374Z,1012.33
2018-01-26T00:50:02.987Z,1012.36
2018-01-26T00:55:03.594Z,1012.24
2018-01-26T01:00:03.192Z,1012.27
2018-01-26T01:05:03.569Z,1012.34
2018-01-26T01:10:03.428Z,1012.24
2018-01-26T01:15:03.012Z,1012.21
2018-01-26T01:20:03.606Z,1012.14
2018-01-26T01:25:03.190Z,1012.25
2018-01-26T01:30:02.740Z,1012.22
2018-01-26T01:35:03.318Z,1012.22
2018-01-26T01:40:03.001Z,1012.21
2018-01-26T01:45:03.608Z,1012.2
2018-01-26T01:50:03.351Z,1012.29
2018-01-26T01:55:02.998Z,1012.52
2018-01-26T02:00:03.557Z,1012.52
2018-01-26T02:05:03.144Z,1012.58
2018-01-26T02:10:02.767Z,1012.56
2018-01-26T02:15:03.270Z,1012.55
2018-01-26T02:20:02.815Z,1012.69
2018-01-26T02:25:03.364Z,1012.65
2018-01-26T02:30:03.010Z,1012.65
2018-01-26T02:35:03.607Z,1012.61
2018-01-26T02:40:03.289Z,1012.6
2018-01-26T02:45:02.895Z,1012.54
2018-01-26T02:50:03.674Z,1012.66
2018-01-26T02:55:03.248Z,1012.49
2018-01-26T03:00:02.785Z,1012.43
2018-01-26T03:05:03.414Z,1012.53
2018-01-26T03:10:03.099Z,1012.58
2018-01-26T03:15:02.706Z,1012.55
2018-01-26T03:20:03.356Z,1012.66
2018-01-26T03:25:02.964Z,1012.67
2018-01-26T03:30:03.569Z,1012.61
2018-01-26T03:35:03.286Z,1012.65
2018-01-26T03:40:02.960Z,1012.68
2018-01-26T03:45:03.511Z,1012.76
2018-01-26T03:50:03.164Z,1012.68
2018-01-26T03:55:02.812Z,1012.75
2018-01-26T04:00:03.593Z,1012.76
2018-01-26T04:05:03.202Z,1012.92
2018-01-26T04:10:02.899Z,1012.92
2018-01-26T04:15:03.496Z,1013
2018-01-26T04:20:03.110Z,1013.09
2018-01-26T04:25:02.682Z,1013.18
2018-01-26T04:30:03.251Z,1013.22
2018-01-26T04:35:02.892Z,1013.35
2018-01-26T04:40:03.451Z,1013.47
2018-01-26T04:45:03.024Z,1013.46
2018-01-26T04:50:03.673Z,1013.56
2018-01-26T04:55:03.252Z,1013.6
2018-01-26T05:00:02.899Z,1013.56
2018-01-26T05:05:03.481Z,1013.56
2018-01-26T05:10:03.193Z,1013.57
2018-01-26T05:15:02.822Z,1013.61
2018-01-26T05:20:03.522Z,1013.64
2018-01-26T05:25:03.155Z,1013.54
2018-01-26T05:30:03.552Z,1013.59
2018-01-26T05:35:03.174Z,1013.5
2018-01-26T05:40:02.846Z,1013.6
2018-01-26T05:45:03.479Z,1013.75
2018-01-26T05:50:03.084Z,1013.74
2018-01-26T05:55:03.672Z,1013.81
2018-01-26T06:00:03.303Z,1013.89
2018-01-26T06:10:03.012Z,1013.91
2018-01-26T06:15:03.609Z,1014
2018-01-26T06:20:03.142Z,1014.05
2018-01-26T06:25:02.767Z,1014.09
2018-01-26T06:30:03.408Z,1014.15
2018-01-26T06:35:02.981Z,1014.17
2018-01-26T06:40:03.650Z,1014.24
2018-01-26T06:45:03.251Z,1014.24
2018-01-26T06:50:02.855Z,1014.19
2018-01-26T06:55:03.483Z,1014.25
2018-01-26T07:00:03.120Z,1014.29
2018-01-26T07:05:02.763Z,1014.41
2018-01-26T07:10:03.403Z,1014.51
2018-01-26T07:15:02.962Z,1014.53
2018-01-26T07:20:03.546Z,1014.75
2018-01-26T07:25:03.124Z,1014.89
2018-01-26T07:30:02.718Z,1015.03
2018-01-26T07:35:03.349Z,1015.09
2018-01-26T07:40:03.013Z,1015.18
2018-01-26T07:45:03.571Z,1015.2
2018-01-26T07:50:03.269Z,1015.2
2018-01-26T07:55:02.901Z,1015.28
2018-01-26T08:00:03.499Z,1015.43
2018-01-26T08:05:03.087Z,1015.47
2018-01-26T08:10:02.722Z,1015.5
2018-01-26T08:15:03.357Z,1015.45
2018-01-26T08:20:03.006Z,1015.37
2018-01-26T08:25:03.587Z,1015.56
2018-01-26T08:30:03.179Z,1015.63
2018-01-26T08:35:02.793Z,1015.74
2018-01-26T08:40:03.408Z,1015.74
2018-01-26T08:45:03.055Z,1015.7
2018-01-26T08:50:02.703Z,1015.81
2018-01-26T08:55:03.251Z,1015.89
2018-01-26T09:00:02.906Z,1015.95
2018-01-26T09:05:03.584Z,1016.06
2018-01-26T09:10:03.334Z,1016.15
2018-01-26T09:15:03.267Z,1016.2
2018-01-26T09:20:02.942Z,1016.3
2018-01-26T09:25:03.526Z,1016.33
2018-01-26T09:30:03.103Z,1016.42
2018-01-26T09:35:02.657Z,1016.43
2018-01-26T09:40:03.264Z,1016.49
2018-01-26T09:45:02.861Z,1016.62
2018-01-26T09:50:03.492Z,1016.75
2018-01-26T09:55:03.015Z,1016.74
2018-01-26T10:00:03.675Z,1016.8
2018-01-26T10:05:03.178Z,1016.8
2018-01-26T10:10:02.872Z,1016.8
2018-01-26T10:15:03.344Z,1016.85
2018-01-26T10:20:02.970Z,1016.93
2018-01-26T10:25:03.539Z,1016.95
2018-01-26T10:30:03.194Z,1017
2018-01-26T10:35:02.704Z,1016.98
2018-01-26T10:40:03.395Z,1016.99
2018-01-26T10:45:03.004Z,1017.01
2018-01-26T10:50:02.741Z,1017.12
2018-01-26T10:55:03.372Z,1017.22
2018-01-26T11:00:02.932Z,1017.14
2018-01-26T11:05:03.428Z,1017.22
2018-01-26T11:10:02.989Z,1017.3
2018-01-26T11:15:03.590Z,1017.29
2018-01-26T11:20:03.249Z,1017.27
2018-01-26T11:25:02.751Z,1017.38
2018-01-26T11:30:03.372Z,1017.45
2018-01-26T11:35:02.904Z,1017.53
2018-01-26T11:40:03.564Z,1017.51
2018-01-26T11:45:03.148Z,1017.62
2018-01-26T11:50:02.702Z,1017.74
2018-01-26T11:55:03.323Z,1017.75
2018-01-26T12:00:02.809Z,1017.8
2018-01-26T12:05:03.433Z,1017.84
2018-01-26T12:10:03.111Z,1017.87
2018-01-26T12:15:03.581Z,1017.84
2018-01-26T12:20:03.080Z,1017.99
2018-01-26T12:25:02.706Z,1017.97
2018-01-26T12:30:03.359Z,1017.9
2018-01-26T12:35:02.887Z,1017.79
2018-01-26T12:40:03.399Z,1017.81
2018-01-26T12:45:02.975Z,1017.82
2018-01-26T12:50:03.565Z,1017.87
2018-01-26T12:55:03.081Z,1017.8
2018-01-26T13:00:03.579Z,1017.87
2018-01-26T13:05:03.553Z,1018.02
2018-01-26T13:10:03.045Z,1017.93
2018-01-26T13:15:02.677Z,1017.9
2018-01-26T13:20:03.421Z,1018.03
2018-01-26T13:25:02.949Z,1018.07
2018-01-26T13:30:03.589Z,1018.07
2018-01-26T13:35:03.155Z,1018.1
2018-01-26T13:40:02.777Z,1018.09
2018-01-26T13:45:03.312Z,1018.1
2018-01-26T13:50:02.843Z,1018.18
2018-01-26T13:55:03.493Z,1018.27
2018-01-26T14:00:03.186Z,1018.28
2018-01-26T14:05:03.042Z,1018.33
2018-01-26T14:10:02.877Z,1018.44
2018-01-26T14:15:03.475Z,1018.57
2018-01-26T14:20:03.153Z,1018.67
2018-01-26T14:25:03.662Z,1018.78
2018-01-26T14:30:03.347Z,1018.97
2018-01-26T14:35:02.854Z,1018.99
2018-01-26T14:40:03.522Z,1019.06
2018-01-26T14:45:02.997Z,1019.18
2018-01-26T14:50:03.658Z,1019.19
2018-01-26T14:55:03.306Z,1019.25
2018-01-26T15:00:02.922Z,1019.36
2018-01-26T15:05:03.400Z,1019.49
2018-01-26T15:10:03.042Z,1019.55
2018-01-26T15:15:03.578Z,1019.67
2018-01-26T15:20:03.107Z,1019.73
2018-01-26T15:25:02.773Z,1019.71
2018-01-26T15:30:03.275Z,1019.8
2018-01-26T15:35:02.794Z,1019.81
2018-01-26T15:40:03.573Z,1019.83
2018-01-26T15:45:03.315Z,1019.87
2018-01-26T15:50:02.799Z,1019.97
2018-01-26T15:55:03.546Z,1020.02
2018-01-26T16:00:03.356Z,1020.02
2018-01-26T16:05:03.030Z,1020.01
2018-01-26T16:10:03.580Z,1020.09
2018-01-26T16:15:03.177Z,1020.14
2018-01-26T16:20:02.738Z,1020.33
2018-01-26T16:25:03.390Z,1020.4
2018-01-26T16:30:03.034Z,1020.42
2018-01-26T16:35:03.646Z,1020.42
2018-01-26T16:40:03.120Z,1020.66
2018-01-26T16:45:03.630Z,1020.84
2018-01-26T16:50:03.267Z,1021.05
2018-01-26T16:55:02.818Z,1021.05
2018-01-26T17:00:03.302Z,1021.12
2018-01-26T17:05:02.957Z,1021.17
2018-01-26T17:10:03.439Z,1021.21
2018-01-26T17:15:03.166Z,1021.3
2018-01-26T17:20:02.882Z,1021.32
2018-01-26T17:25:03.453Z,1021.45
2018-01-26T17:30:02.905Z,1021.43
2018-01-26T17:35:03.610Z,1021.42
2018-01-26T17:40:03.091Z,1021.5
2018-01-26T17:45:03.483Z,1021.51
2018-01-26T17:50:03.102Z,1021.5
2018-01-26T17:55:02.675Z,1021.61
2018-01-26T18:00:03.405Z,1021.7
2018-01-26T18:05:02.933Z,1021.72
2018-01-26T18:10:03.583Z,1021.81
2018-01-26T18:15:03.215Z,1021.86
2018-01-26T18:20:02.730Z,1021.94
2018-01-26T18:25:03.381Z,1022.04
2018-01-26T18:30:02.902Z,1022.05
2018-01-26T18:35:03.501Z,1022.07
2018-01-26T18:40:03.004Z,1022.06
2018-01-26T18:45:02.703Z,1022.14
2018-01-26T18:50:03.389Z,1022.32
2018-01-26T18:55:02.867Z,1022.4
2018-01-26T19:00:03.255Z,1022.58
2018-01-26T19:05:02.761Z,1022.63
2018-01-26T19:10:03.290Z,1022.65
2018-01-26T19:15:02.977Z,1022.73
2018-01-26T19:20:03.583Z,1022.75
2018-01-26T19:25:03.216Z,1022.79
2018-01-26T19:30:02.828Z,1022.9
2018-01-26T19:35:03.391Z,1022.96
2018-01-26T19:40:03.072Z,1022.99
2018-01-26T19:45:03.550Z,1023.09
2018-01-26T19:50:03.262Z,1023.13
2018-01-26T19:55:02.878Z,1023.2
2018-01-26T20:00:03.438Z,1023.23
2018-01-26T20:05:03.076Z,1023.29
2018-01-26T20:10:03.652Z,1023.32
2018-01-26T20:15:03.207Z,1023.43
2018-01-26T20:20:02.883Z,1023.55
2018-01-26T20:25:03.615Z,1023.59
2018-01-26T20:30:03.315Z,1023.63
2018-01-26T20:35:02.833Z,1023.71
2018-01-26T20:40:03.533Z,1023.87
2018-01-26T20:45:03.121Z,1023.95
2018-01-26T20:50:02.836Z,1024.09
2018-01-26T20:55:03.534Z,1024.14
2018-01-26T21:00:03.244Z,1024.14
2018-01-26T21:05:02.977Z,1024.25
2018-01-26T21:10:02.766Z,1024.29
2018-01-26T21:15:03.218Z,1024.34
2018-01-26T21:20:02.787Z,1024.43
2018-01-26T21:25:03.347Z,1024.45
2018-01-26T21:30:02.849Z,1024.54
2018-01-26T21:35:03.454Z,1024.57
2018-01-26T21:40:03.053Z,1024.67
2018-01-26T21:45:03.573Z,1024.66
2018-01-26T21:50:03.189Z,1024.73
2018-01-26T21:55:02.884Z,1024.72
2018-01-26T22:00:03.768Z,1024.75
2018-01-26T22:05:03.421Z,1024.79
2018-01-26T22:10:02.933Z,1024.83
2018-01-26T22:15:03.524Z,1024.88
2018-01-26T22:20:03.176Z,1024.95
2018-01-26T22:25:02.799Z,1025.05
2018-01-26T22:30:03.445Z,1025.03
2018-01-26T22:35:03.122Z,1025.12
2018-01-26T22:40:02.800Z,1025.13
2018-01-26T22:45:03.337Z,1025.18
2018-01-26T22:50:02.745Z,1025.27
2018-01-26T22:55:03.394Z,1025.28
2018-01-26T23:00:03.049Z,1025.35
2018-01-26T23:05:03.546Z,1025.43
2018-01-26T23:10:03.128Z,1025.51
2018-01-26T23:15:02.750Z,1025.58
2018-01-26T23:20:03.364Z,1025.62
2018-01-26T23:25:02.860Z,1025.66
2018-01-26T23:30:03.561Z,1025.76
2018-01-26T23:35:03.125Z,1025.83
2018-01-26T23:40:02.709Z,1025.85
2018-01-26T23:45:03.396Z,1025.84
2018-01-26T23:50:03.063Z,1025.93
2018-01-26T23:55:02.672Z,1025.86
